createdAt,value
2022-08-14T00:02:03.610Z,22.15
2022-08-14T00:04:44.770Z,22.19
2022-08-14T00:07:14.215Z,22.07
2022-08-14T00:10:01.843Z,22.07
2022-08-14T00:12:39.426Z,21.95
2022-08-14T00:15:13.331Z,21.46
2022-08-14T00:17:48.477Z,21.92
2022-08-14T00:20:35.939Z,21.88
2022-08-14T00:23:16.904Z,21.86
2022-08-14T00:25:58.581Z,21.71
2022-08-14T00:28:34.907Z,21.27
2022-08-14T00:31:04.818Z,21.74
2022-08-14T00:33:50.952Z,21.66
2022-08-14T00:36:37.588Z,21.64
2022-08-14T00:39:18.320Z,21.57
2022-08-14T00:41:47.761Z,21.61
2022-08-14T00:44:15.320Z,21.59
2022-08-14T00:47:02.482Z,21.58
2022-08-14T00:49:31.233Z,21.59
2022-08-14T00:52:05.712Z,21.55
2022-08-14T00:54:34.742Z,21.48
2022-08-14T00:57:03.150Z,21.53
2022-08-14T00:59:31.583Z,21.50
2022-08-14T01:02:01.033Z,21.02
2022-08-14T01:04:51.578Z,21.43
2022-08-14T01:07:21.828Z,21.40
2022-08-14T01:09:56.246Z,21.39
2022-08-14T01:12:29.590Z,21.33
2022-08-14T01:14:59.811Z,21.40
2022-08-14T01:17:50.718Z,21.53
2022-08-14T01:20:41.005Z,21.45
2022-08-14T01:23:16.613Z,21.49
2022-08-14T01:25:51.288Z,21.40
2022-08-14T01:28:46.920Z,21.36
2022-08-14T01:31:15.637Z,21.26
2022-08-14T01:35:15.922Z,21.20
2022-08-14T01:36:39.411Z,21.15
2022-08-14T01:39:16.164Z,21.14
2022-08-14T01:41:58.263Z,21.09
2022-08-14T01:44:33.122Z,21.09
2022-08-14T01:47:11.635Z,20.99
2022-08-14T01:49:46.575Z,21.10
2022-08-14T01:52:34.309Z,21.13
2022-08-14T01:55:18.502Z,21.05
2022-08-14T01:58:00.951Z,21.24
2022-08-14T02:00:36.377Z,21.23
2022-08-14T02:03:06.168Z,21.17
2022-08-14T02:05:38.510Z,21.14
2022-08-14T02:08:08.731Z,21.13
2022-08-14T02:10:47.426Z,21.14
2022-08-14T02:13:17.363Z,21.08
2022-08-14T02:15:45.788Z,20.98
2022-08-14T02:18:16.335Z,20.85
2022-08-14T02:20:46.261Z,20.81
2022-08-14T02:23:14.935Z,20.84
2022-08-14T02:25:44.238Z,20.86
2022-08-14T02:28:56.888Z,20.80
2022-08-14T02:31:10.843Z,20.91
2022-08-14T02:33:42.905Z,20.84
2022-08-14T02:37:02.431Z,20.93
2022-08-14T02:38:58.856Z,21.02
2022-08-14T02:41:28.619Z,20.93
2022-08-14T02:44:00.925Z,20.86
2022-08-14T02:46:32.284Z,20.89
2022-08-14T02:49:06.529Z,20.86
2022-08-14T02:51:36.603Z,20.75
2022-08-14T02:54:07.245Z,20.78
2022-08-14T02:57:13.871Z,20.75
2022-08-14T02:59:33.837Z,20.67
2022-08-14T03:02:03.595Z,20.31
2022-08-14T03:04:32.558Z,20.71
2022-08-14T03:07:07.804Z,20.62
2022-08-14T03:10:24.354Z,20.61
2022-08-14T03:12:32.234Z,20.63
2022-08-14T03:15:06.493Z,20.61
2022-08-14T03:17:41.050Z,20.55
2022-08-14T03:20:22.861Z,20.50
2022-08-14T03:22:50.930Z,20.57
2022-08-14T03:25:22.281Z,20.50
2022-08-14T03:27:58.266Z,20.57
2022-08-14T03:30:39.255Z,20.51
2022-08-14T03:33:10.557Z,20.46
2022-08-14T03:36:05.655Z,20.44
2022-08-14T03:39:12.537Z,20.54
2022-08-14T03:41:23.160Z,20.48
2022-08-14T03:44:01.551Z,20.46
2022-08-14T03:46:54.461Z,20.44
2022-08-14T03:49:28.337Z,20.53
2022-08-14T03:52:00.415Z,20.50
2022-08-14T03:54:30.493Z,20.51
2022-08-14T03:57:02.984Z,20.48
2022-08-14T03:59:35.442Z,20.40
2022-08-14T04:02:04.675Z,20.46
2022-08-14T04:04:38.252Z,20.48
2022-08-14T04:07:06.697Z,20.58
2022-08-14T04:09:34.390Z,20.62
2022-08-14T04:12:02.962Z,20.54
2022-08-14T04:14:37.266Z,20.59
2022-08-14T04:17:05.879Z,20.60
2022-08-14T04:19:39.177Z,20.64
2022-08-14T04:22:06.810Z,20.64
2022-08-14T04:24:37.965Z,20.76
2022-08-14T04:27:17.069Z,20.77
2022-08-14T04:29:45.451Z,20.75
2022-08-14T04:33:00.016Z,20.76
2022-08-14T04:35:07.165Z,20.83
2022-08-14T04:38:36.925Z,20.87
2022-08-14T04:41:16.078Z,20.91
2022-08-14T04:43:43.580Z,21.10
2022-08-14T04:46:56.956Z,21.22
2022-08-14T04:49:07.952Z,21.25
2022-08-14T04:51:46.625Z,21.45
2022-08-14T04:54:20.858Z,21.62
2022-08-14T04:56:51.794Z,21.77
2022-08-14T04:59:23.093Z,21.81
2022-08-14T05:01:56.356Z,21.91
2022-08-14T05:04:25.244Z,21.99
2022-08-14T05:06:55.346Z,22.09
2022-08-14T05:09:28.945Z,22.15
2022-08-14T05:12:59.316Z,22.12
2022-08-14T05:14:53.715Z,22.16
2022-08-14T05:17:32.019Z,22.22
2022-08-14T05:21:55.431Z,22.41
2022-08-14T05:23:00.092Z,22.53
2022-08-14T05:25:31.926Z,22.61
2022-08-14T05:28:29.171Z,22.75
2022-08-14T05:30:58.875Z,22.79
2022-08-14T05:33:31.135Z,22.77
2022-08-14T05:36:03.642Z,22.86
2022-08-14T05:38:39.903Z,22.95
2022-08-14T05:41:13.025Z,23.05
2022-08-14T05:43:41.970Z,23.09
2022-08-14T05:46:15.392Z,23.15
2022-08-14T05:48:43.842Z,23.31
2022-08-14T05:51:13.494Z,23.37
2022-08-14T05:53:42.311Z,23.43
2022-08-14T05:56:09.866Z,23.58
2022-08-14T05:58:41.212Z,23.66
2022-08-14T06:01:10.273Z,23.66
2022-08-14T06:03:40.227Z,23.77
2022-08-14T06:06:08.087Z,23.84
2022-08-14T06:08:41.511Z,23.96
2022-08-14T06:11:09.521Z,24.06
2022-08-14T06:13:45.318Z,24.20
2022-08-14T06:16:18.235Z,24.32
2022-08-14T06:18:52.393Z,24.38
2022-08-14T06:21:23.922Z,24.50
2022-08-14T06:23:52.185Z,24.59
2022-08-14T06:26:20.482Z,24.66
2022-08-14T06:28:52.377Z,24.77
2022-08-14T06:31:22.698Z,24.95
2022-08-14T06:35:02.970Z,25.10
2022-08-14T06:36:39.468Z,25.20
2022-08-14T06:39:10.440Z,25.29
2022-08-14T06:41:57.592Z,25.31
2022-08-14T06:44:30.633Z,25.60
2022-08-14T06:47:02.789Z,25.81
2022-08-14T06:49:43.471Z,25.95
2022-08-14T06:52:15.113Z,26.02
2022-08-14T06:54:43.471Z,26.19
2022-08-14T06:57:12.275Z,26.37
2022-08-14T06:59:41.154Z,26.39
2022-08-14T07:02:28.687Z,26.60
2022-08-14T07:05:20.822Z,26.74
2022-08-14T07:07:51.248Z,26.63
2022-08-14T07:10:18.467Z,26.61
2022-08-14T07:13:01.494Z,26.65
2022-08-14T07:15:34.113Z,26.69
2022-08-14T07:18:08.981Z,26.70
2022-08-14T07:20:38.306Z,26.89
2022-08-14T07:23:09.393Z,27.02
2022-08-14T07:25:42.306Z,27.03
2022-08-14T07:28:20.552Z,26.98
2022-08-14T07:30:50.935Z,27.03
2022-08-14T07:33:24.530Z,27.24
2022-08-14T07:36:00.630Z,27.19
2022-08-14T07:38:35.449Z,27.34
2022-08-14T07:41:11.782Z,27.25
2022-08-14T07:43:44.132Z,27.37
2022-08-14T07:46:21.234Z,27.54
2022-08-14T07:48:57.057Z,27.61
2022-08-14T07:51:24.644Z,27.68
2022-08-14T07:53:57.173Z,27.78
2022-08-14T07:56:47.968Z,27.90
2022-08-14T07:59:12.879Z,28.00
2022-08-14T08:01:51.461Z,28.04
2022-08-14T08:04:25.241Z,28.01
2022-08-14T08:06:55.163Z,28.02
2022-08-14T08:09:32.528Z,27.99
2022-08-14T08:12:04.803Z,28.06
2022-08-14T08:14:56.199Z,28.18
2022-08-14T08:17:24.087Z,28.29
2022-08-14T08:19:51.870Z,28.51
2022-08-14T08:22:21.889Z,28.64
2022-08-14T08:24:50.338Z,28.76
2022-08-14T08:27:22.280Z,28.84
2022-08-14T08:29:51.297Z,28.77
2022-08-14T08:32:19.290Z,28.75
2022-08-14T08:34:49.237Z,28.59
2022-08-14T08:37:16.754Z,28.61
2022-08-14T08:40:01.872Z,28.61
2022-08-14T08:42:44.736Z,28.69
2022-08-14T08:45:17.188Z,28.87
2022-08-14T08:47:46.461Z,29.04
2022-08-14T08:53:08.971Z,29.49
2022-08-14T08:55:42.501Z,29.56
2022-08-14T08:58:24.855Z,29.76
2022-08-14T09:00:55.811Z,29.92
2022-08-14T09:03:27.306Z,30.05
2022-08-14T09:05:56.527Z,30.36
2022-08-14T09:08:31.215Z,30.34
2022-08-14T09:11:20.929Z,30.32
2022-08-14T09:13:53.799Z,30.07
2022-08-14T09:16:26.325Z,29.94
2022-08-14T09:18:55.965Z,29.75
2022-08-14T09:21:24.954Z,29.66
2022-08-14T09:24:28.679Z,29.49
2022-08-14T09:26:49.224Z,29.18
2022-08-14T09:29:20.022Z,28.66
2022-08-14T09:31:57.471Z,28.43
2022-08-14T09:34:28.522Z,28.48
2022-08-14T09:37:14.035Z,28.42
2022-08-14T09:40:06.946Z,28.35
2022-08-14T09:42:59.134Z,28.21
2022-08-14T09:45:39.765Z,28.18
2022-08-14T09:48:27.930Z,28.02
2022-08-14T09:54:18.948Z,27.83
2022-08-14T09:56:56.914Z,27.82
2022-08-14T09:59:32.040Z,27.87
2022-08-14T10:01:59.979Z,27.93
2022-08-14T10:04:34.308Z,27.97
2022-08-14T10:07:06.308Z,28.07
2022-08-14T10:10:00.012Z,28.12
2022-08-14T10:12:44.722Z,28.23
2022-08-14T10:15:32.364Z,28.37
2022-08-14T10:18:17.326Z,28.40
2022-08-14T10:21:01.180Z,28.66
2022-08-14T10:23:43.159Z,28.77
2022-08-14T10:26:11.877Z,28.65
2022-08-14T10:29:18.373Z,28.59
2022-08-14T10:31:44.891Z,28.79
2022-08-14T10:34:19.040Z,28.67
2022-08-14T10:36:50.209Z,28.56
2022-08-14T10:39:30.271Z,28.37
2022-08-14T10:42:18.230Z,28.16
2022-08-14T10:44:52.576Z,27.89
2022-08-14T10:47:41.384Z,27.55
2022-08-14T10:50:12.097Z,27.21
2022-08-14T10:52:43.648Z,27.02
2022-08-14T10:55:17.438Z,26.82
2022-08-14T10:57:58.255Z,26.47
2022-08-14T11:00:30.192Z,26.19
2022-08-14T11:03:10.873Z,25.68
2022-08-14T11:05:44.045Z,24.51
2022-08-14T11:08:15.566Z,23.96
2022-08-14T11:10:56.712Z,23.40
2022-08-14T11:13:37.681Z,22.88
2022-08-14T11:16:05.030Z,22.70
2022-08-14T11:18:55.974Z,22.54
2022-08-14T11:21:30.060Z,22.33
2022-08-14T11:23:59.581Z,22.14
2022-08-14T11:26:30.150Z,21.81
2022-08-14T11:29:00.337Z,22.02
2022-08-14T11:31:38.792Z,21.99
2022-08-14T11:34:29.978Z,21.97
2022-08-14T11:37:03.938Z,21.94
2022-08-14T11:39:45.389Z,21.94
2022-08-14T11:42:56.484Z,21.97
2022-08-14T11:45:17.101Z,22.00
2022-08-14T11:48:13.488Z,22.09
2022-08-14T11:50:37.165Z,22.02
2022-08-14T11:53:08.745Z,21.90
2022-08-14T11:55:38.841Z,21.96
2022-08-14T11:58:15.559Z,21.90
2022-08-14T12:00:53.756Z,21.78
2022-08-14T12:03:27.233Z,21.78
2022-08-14T12:06:28.682Z,21.80
2022-08-14T12:09:00.152Z,21.83
2022-08-14T12:11:43.378Z,21.81
2022-08-14T12:14:30.277Z,21.87
2022-08-14T12:17:12.557Z,21.84
2022-08-14T12:19:51.062Z,21.89
2022-08-14T12:22:43.134Z,21.92
2022-08-14T12:25:20.349Z,21.89
2022-08-14T12:27:53.397Z,21.75
2022-08-14T12:30:39.367Z,21.84
2022-08-14T12:33:23.976Z,21.76
2022-08-14T12:35:56.342Z,21.68
2022-08-14T12:38:54.375Z,21.66
2022-08-14T12:41:24.140Z,21.54
2022-08-14T12:43:59.736Z,21.49
2022-08-14T12:46:35.037Z,21.40
2022-08-14T12:49:16.141Z,21.41
2022-08-14T12:51:55.617Z,21.43
2022-08-14T12:54:28.465Z,21.36
2022-08-14T12:57:04.936Z,21.30
2022-08-14T12:59:37.087Z,21.36
2022-08-14T13:02:26.351Z,21.25
2022-08-14T13:04:56.736Z,21.33
2022-08-14T13:07:32.051Z,21.31
2022-08-14T13:10:33.627Z,21.23
2022-08-14T13:13:12.613Z,21.13
2022-08-14T13:15:40.589Z,21.19
2022-08-14T13:18:10.656Z,21.18
2022-08-14T13:20:48.019Z,21.22
2022-08-14T13:23:19.504Z,21.31
2022-08-14T13:25:59.956Z,21.34
2022-08-14T13:28:32.727Z,21.42
2022-08-14T13:31:11.195Z,21.49
2022-08-14T13:33:43.123Z,21.65
2022-08-14T13:36:11.122Z,21.71
2022-08-14T13:38:53.474Z,21.80
2022-08-14T13:41:31.806Z,21.80
2022-08-14T13:44:04.906Z,21.90
2022-08-14T13:46:35.251Z,21.92
2022-08-14T13:49:02.629Z,22.00
2022-08-14T13:51:36.231Z,22.15
2022-08-14T13:54:11.079Z,22.21
2022-08-14T13:56:42.214Z,22.27
2022-08-14T13:59:10.912Z,22.40
2022-08-14T14:01:43.594Z,22.50
2022-08-14T14:04:19.898Z,22.67
2022-08-14T14:07:00.870Z,22.78
2022-08-14T14:09:32.504Z,23.00
2022-08-14T14:12:37.510Z,23.23
2022-08-14T14:15:05.251Z,23.28
2022-08-14T14:17:35.778Z,23.42
2022-08-14T14:20:06.077Z,23.62
2022-08-14T14:22:35.743Z,23.74
2022-08-14T14:25:21.887Z,23.73
2022-08-14T14:27:53.634Z,23.62
2022-08-14T14:30:52.394Z,23.49
2022-08-14T14:33:44.093Z,23.55
2022-08-14T14:36:05.060Z,23.54
2022-08-14T14:38:34.124Z,23.37
2022-08-14T14:41:05.566Z,23.42
2022-08-14T14:43:37.177Z,23.30
2022-08-14T14:46:09.554Z,23.20
2022-08-14T14:48:46.675Z,23.09
2022-08-14T14:51:23.143Z,23.11
2022-08-14T14:53:52.606Z,23.12
2022-08-14T14:56:47.570Z,23.14
2022-08-14T14:59:08.916Z,23.13
2022-08-14T15:01:38.152Z,23.08
2022-08-14T15:04:20.080Z,23.01
2022-08-14T15:06:49.238Z,22.80
2022-08-14T15:09:17.562Z,22.80
2022-08-14T15:11:47.130Z,22.81
2022-08-14T15:14:56.122Z,22.74
2022-08-14T15:17:03.986Z,22.78
2022-08-14T15:19:32.111Z,22.72
2022-08-14T15:22:00.163Z,22.69
2022-08-14T15:24:27.379Z,22.66
2022-08-14T15:27:08.463Z,22.57
2022-08-14T15:29:43.635Z,22.58
2022-08-14T15:33:23.934Z,22.46
2022-08-14T15:35:51.375Z,22.26
2022-08-14T15:38:19.407Z,22.23
2022-08-14T15:40:51.613Z,22.24
2022-08-14T15:43:27.247Z,22.16
2022-08-14T15:45:56.491Z,22.21
2022-08-14T15:48:23.782Z,22.07
2022-08-14T15:50:51.678Z,22.02
2022-08-14T15:53:22.556Z,22.04
2022-08-14T15:55:54.782Z,21.94
2022-08-14T15:58:24.258Z,21.89
2022-08-14T16:01:12.937Z,21.83
2022-08-14T16:03:42.512Z,21.75
2022-08-14T16:06:21.089Z,21.65
2022-08-14T16:08:58.777Z,21.58
2022-08-14T16:11:28.870Z,21.63
2022-08-14T16:14:01.304Z,21.62
2022-08-14T16:16:47.379Z,21.75
2022-08-14T16:19:19.690Z,21.74
2022-08-14T16:22:02.060Z,21.72
2022-08-14T16:27:37.877Z,21.54
2022-08-14T16:30:24.415Z,21.50
2022-08-14T16:32:57.625Z,21.49
2022-08-14T16:35:43.185Z,21.48
2022-08-14T16:38:46.490Z,21.39
2022-08-14T16:40:24.278Z,21.69
2022-08-14T16:41:29.397Z,21.36
2022-08-14T16:44:01.829Z,21.37
2022-08-14T16:46:32.634Z,21.26
2022-08-14T16:49:00.998Z,21.19
2022-08-14T16:51:34.966Z,21.26
2022-08-14T16:54:21.112Z,21.27
2022-08-14T16:56:53.831Z,21.32
2022-08-14T16:59:30.595Z,21.38
2022-08-14T17:02:11.949Z,21.36
2022-08-14T17:04:43.008Z,21.44
2022-08-14T17:07:17.606Z,21.42
2022-08-14T17:09:49.075Z,21.44
2022-08-14T17:12:33.427Z,21.35
2022-08-14T17:15:10.732Z,21.33
2022-08-14T17:17:38.860Z,21.37
2022-08-14T17:20:39.367Z,21.38
2022-08-14T17:23:00.297Z,21.38
2022-08-14T17:25:37.400Z,21.34
2022-08-14T17:28:52.246Z,21.31
2022-08-14T17:31:08.893Z,21.40
2022-08-14T17:33:40.885Z,21.56
2022-08-14T17:36:24.598Z,21.45
2022-08-14T17:39:06.517Z,21.44
2022-08-14T17:42:03.069Z,21.40
2022-08-14T17:44:44.980Z,21.42
2022-08-14T17:47:18.018Z,21.24
2022-08-14T17:49:54.111Z,21.42
2022-08-14T17:52:34.339Z,21.45
2022-08-14T17:56:01.782Z,21.35
2022-08-14T17:58:20.761Z,21.41
2022-08-14T18:01:13.171Z,21.41
2022-08-14T18:03:50.987Z,21.40
2022-08-14T18:06:58.460Z,21.38
2022-08-14T18:09:37.589Z,21.29
2022-08-14T18:12:09.933Z,21.28
2022-08-14T18:14:59.362Z,21.24
2022-08-14T18:17:31.426Z,21.03
2022-08-14T18:20:01.343Z,21.16
2022-08-14T18:22:39.353Z,21.23
2022-08-14T18:25:18.493Z,21.22
2022-08-14T18:27:51.523Z,21.26
2022-08-14T18:30:31.636Z,21.22
2022-08-14T18:33:35.388Z,21.23
2022-08-14T18:36:47.645Z,21.31
2022-08-14T18:39:32.219Z,21.19
2022-08-14T18:42:23.417Z,21.23
2022-08-14T18:44:52.537Z,21.27
2022-08-14T18:47:22.805Z,21.22
2022-08-14T18:50:01.279Z,21.13
2022-08-14T18:52:34.482Z,21.19
2022-08-14T18:55:20.909Z,21.21
2022-08-14T18:57:57.610Z,21.15
2022-08-14T19:00:33.874Z,21.16
2022-08-14T19:03:04.892Z,21.17
2022-08-14T19:05:37.998Z,21.15
2022-08-14T19:08:22.227Z,21.17
2022-08-14T19:10:52.519Z,21.17
2022-08-14T19:13:51.349Z,21.16
2022-08-14T19:16:26.148Z,21.20
2022-08-14T19:19:00.210Z,20.73
2022-08-14T19:21:29.990Z,21.17
2022-08-14T19:24:26.780Z,21.16
2022-08-14T19:27:24.210Z,21.13
2022-08-14T19:30:20.117Z,21.09
2022-08-14T19:32:57.046Z,20.96
2022-08-14T19:35:48.688Z,21.12
2022-08-14T19:38:47.838Z,21.11
2022-08-14T19:41:21.471Z,21.05
2022-08-14T19:43:52.259Z,21.09
2022-08-14T19:46:39.441Z,20.75
2022-08-14T19:49:23.224Z,21.10
2022-08-14T19:52:05.217Z,21.15
2022-08-14T19:54:44.941Z,21.08
2022-08-14T19:57:38.599Z,21.15
2022-08-14T20:00:28.438Z,21.18
2022-08-14T20:03:10.585Z,21.15
2022-08-14T20:05:45.429Z,21.12
2022-08-14T20:11:01.313Z,21.12
2022-08-14T20:11:18.824Z,21.15
2022-08-14T20:14:10.412Z,21.13
2022-08-14T20:16:42.721Z,21.13
2022-08-14T20:19:14.254Z,21.10
2022-08-14T20:21:58.504Z,21.22
2022-08-14T20:24:42.923Z,21.27
2022-08-14T20:27:33.390Z,21.28
2022-08-14T20:30:33.615Z,21.31
2022-08-14T20:33:07.731Z,21.17
2022-08-14T20:35:43.573Z,21.22
2022-08-14T20:38:30.910Z,21.26
2022-08-14T20:41:00.877Z,21.23
2022-08-14T20:43:52.830Z,21.20
2022-08-14T20:46:30.045Z,21.12
2022-08-14T20:49:00.237Z,21.23
2022-08-14T20:51:47.722Z,21.18
2022-08-14T20:54:34.271Z,21.12
2022-08-14T20:57:11.867Z,21.13
2022-08-14T20:59:44.750Z,21.18
2022-08-14T21:02:34.306Z,21.17
2022-08-14T21:05:16.308Z,21.12
2022-08-14T21:07:51.113Z,21.09
2022-08-14T21:10:34.042Z,21.01
2022-08-14T21:14:09.153Z,21.17
2022-08-14T21:15:57.206Z,21.15
2022-08-14T21:18:32.591Z,21.18
2022-08-14T21:21:07.648Z,21.08
2022-08-14T21:23:53.837Z,20.84
2022-08-14T21:26:52.242Z,21.04
2022-08-14T21:29:19.581Z,20.84
2022-08-14T21:31:55.725Z,20.90
2022-08-14T21:34:31.777Z,20.98
2022-08-14T21:37:08.903Z,20.97
2022-08-14T21:39:38.272Z,20.97
2022-08-14T21:42:06.455Z,20.99
2022-08-14T21:44:42.734Z,20.97
2022-08-14T21:47:13.318Z,20.96
2022-08-14T21:49:46.346Z,20.91
2022-08-14T21:52:51.834Z,20.95
2022-08-14T21:55:10.357Z,20.95
2022-08-14T21:57:55.719Z,21.00
2022-08-14T22:00:36.504Z,20.90
2022-08-14T22:03:11.424Z,20.92
2022-08-14T22:05:40.744Z,20.87
2022-08-14T22:08:12.303Z,20.93
2022-08-14T22:10:44.666Z,20.92
2022-08-14T22:13:16.843Z,20.95
2022-08-14T22:15:50.041Z,20.61
2022-08-14T22:18:21.523Z,20.95
2022-08-14T22:20:54.039Z,20.94
2022-08-14T22:23:24.956Z,20.93
2022-08-14T22:25:55.271Z,20.90
2022-08-14T22:28:33.159Z,20.92
2022-08-14T22:31:09.902Z,20.77
2022-08-14T22:33:39.905Z,20.76
2022-08-14T22:36:27.140Z,20.86
2022-08-14T22:39:02.288Z,20.78
2022-08-14T22:41:32.633Z,20.84
2022-08-14T22:44:19.867Z,20.87
2022-08-14T22:46:49.608Z,20.90
2022-08-14T22:50:28.770Z,20.91
2022-08-14T22:52:33.110Z,20.88
2022-08-14T22:54:58.833Z,20.87
2022-08-14T22:57:27.185Z,20.77
2022-08-14T23:00:09.532Z,20.65
2022-08-14T23:02:37.290Z,20.72
2022-08-14T23:05:07.619Z,20.78
2022-08-14T23:09:01.753Z,20.74
2022-08-14T23:10:32.493Z,20.79
2022-08-14T23:13:02.584Z,20.80
2022-08-14T23:15:30.591Z,20.90
2022-08-14T23:17:58.365Z,20.89
2022-08-14T23:20:29.562Z,20.81
2022-08-14T23:22:57.835Z,20.85
2022-08-14T23:25:57.366Z,20.86
2022-08-14T23:28:34.846Z,20.78
2022-08-14T23:31:12.627Z,20.76
2022-08-14T23:33:51.918Z,20.84
2022-08-14T23:36:31.800Z,20.79
2022-08-14T23:39:12.296Z,20.85
2022-08-14T23:41:52.987Z,20.71
2022-08-14T23:44:23.906Z,20.78
2022-08-14T23:46:57.032Z,20.84
2022-08-14T23:49:31.988Z,20.84
2022-08-14T23:52:56.336Z,20.81
2022-08-14T23:55:06.551Z,20.66
2022-08-14T23:57:43.931Z,20.73
